createdAt,value
2019-04-23T00:07:13.000Z,30.1
2019-04-23T00:17:13.000Z,30.6
2019-04-23T00:27:13.000Z,30.5
2019-04-23T00:47:15.000Z,30.9
2019-04-23T00:57:13.000Z,30.5
2019-04-23T01:17:13.000Z,30.7
2019-04-23T01:47:14.000Z,31
2019-04-23T02:07:13.000Z,31.4
2019-04-23T02:17:13.000Z,31.4
2019-04-23T02:27:13.000Z,31.4
2019-04-23T02:37:13.000Z,31.7
2019-04-23T02:57:13.000Z,32.5
2019-04-23T03:07:13.000Z,32.8
2019-04-23T03:17:13.000Z,32.7
2019-04-23T03:27:16.000Z,32.7
2019-04-23T03:37:13.000Z,33
2019-04-23T03:57:13.000Z,32.7
2019-04-23T04:17:13.000Z,33
2019-04-23T04:27:13.000Z,33
2019-04-23T04:37:13.000Z,33.3
2019-04-23T05:27:13.000Z,34.7
2019-04-23T05:37:14.000Z,36.9
2019-04-23T05:47:13.000Z,37.4
2019-04-23T05:57:13.000Z,37.4
2019-04-23T06:07:14.000Z,37.5
2019-04-23T06:17:14.000Z,39.6
2019-04-23T06:27:17.000Z,40.5
2019-04-23T06:47:14.000Z,41.5
2019-04-23T06:57:14.000Z,42.6
2019-04-23T07:17:14.000Z,43.1
2019-04-23T07:27:14.000Z,42.7
2019-04-23T07:37:14.000Z,42.9
2019-04-23T07:47:14.000Z,43.4
2019-04-23T07:57:14.000Z,43.8
2019-04-23T08:07:14.000Z,44
2019-04-23T08:27:14.000Z,44.1
2019-04-23T08:37:14.000Z,44.3
2019-04-23T08:47:14.000Z,44.5
2019-04-23T08:57:14.000Z,44.6
2019-04-23T09:07:14.000Z,44.2
2019-04-23T09:17:14.000Z,44.2
2019-04-23T09:27:14.000Z,44.3
2019-04-23T09:37:15.000Z,44.3
2019-04-23T09:47:14.000Z,44.6
2019-04-23T09:57:14.000Z,45
2019-04-23T10:07:14.000Z,45.2
2019-04-23T10:17:14.000Z,45.4
2019-04-23T10:27:14.000Z,45.2
2019-04-23T10:37:14.000Z,45.5
2019-04-23T10:47:14.000Z,45.4
2019-04-23T10:57:15.000Z,45.4
2019-04-23T11:07:14.000Z,44.7
2019-04-23T11:17:15.000Z,44.5
2019-04-23T11:27:14.000Z,44.6
2019-04-23T11:57:14.000Z,45.3
2019-04-23T12:07:14.000Z,45.4
2019-04-23T12:27:14.000Z,46.1
2019-04-23T12:37:14.000Z,46.6
2019-04-23T12:47:14.000Z,46.4
2019-04-23T12:57:14.000Z,46
2019-04-23T13:07:15.000Z,46
2019-04-23T13:17:15.000Z,46
2019-04-23T13:37:15.000Z,46
2019-04-23T13:57:15.000Z,45.7
2019-04-23T14:07:15.000Z,43.4
2019-04-23T14:17:15.000Z,48.1
2019-04-23T14:27:15.000Z,51
2019-04-23T14:37:15.000Z,48.1
2019-04-23T14:47:15.000Z,49.6
2019-04-23T14:57:15.000Z,50
2019-04-23T15:07:19.000Z,50
2019-04-23T15:17:15.000Z,51.8
2019-04-23T15:47:16.000Z,46.9
2019-04-23T15:57:15.000Z,46.9
2019-04-23T16:07:15.000Z,48.8
2019-04-23T16:17:15.000Z,49.7
2019-04-23T16:27:15.000Z,50.9
2019-04-23T16:37:15.000Z,51.9
2019-04-23T16:47:17.000Z,52.3
2019-04-23T16:57:15.000Z,52.1
2019-04-23T17:07:18.000Z,52.1
2019-04-23T17:17:17.000Z,52.1
2019-04-23T18:17:15.000Z,53.9
2019-04-23T18:37:15.000Z,53.6
2019-04-23T18:47:16.000Z,53.4
2019-04-23T18:57:15.000Z,53.6
2019-04-23T19:07:15.000Z,54.1
2019-04-23T19:27:15.000Z,54.6
2019-04-23T19:37:15.000Z,54.7
2019-04-23T19:47:15.000Z,54.7
2019-04-23T19:57:16.000Z,54.7
2019-04-23T20:07:16.000Z,54.7
2019-04-23T20:17:16.000Z,54.9
2019-04-23T20:27:18.000Z,54.3
2019-04-23T20:47:16.000Z,54.1
2019-04-23T20:57:16.000Z,54.5
2019-04-23T21:07:16.000Z,48.3
2019-04-23T21:57:16.000Z,41.5
2019-04-23T22:07:16.000Z,41.3
2019-04-23T22:27:16.000Z,41.2
2019-04-23T22:37:16.000Z,41.1
2019-04-23T22:47:16.000Z,41.1
2019-04-23T23:27:17.000Z,41.4
2019-04-23T23:37:16.000Z,41.5
2019-04-23T23:57:16.000Z,41.3
